createdAt,value
2022-10-24T00:00:29.473Z,15.70
2022-10-24T00:02:56.447Z,15.80
2022-10-24T00:05:23.919Z,15.80
2022-10-24T00:07:50.852Z,15.80
2022-10-24T00:10:19.224Z,15.80
2022-10-24T00:12:46.551Z,15.90
2022-10-24T00:15:14.414Z,15.80
2022-10-24T00:17:41.296Z,15.80
2022-10-24T00:20:08.737Z,15.80
2022-10-24T00:22:35.819Z,15.80
2022-10-24T00:25:02.552Z,15.80
2022-10-24T00:27:29.279Z,15.70
2022-10-24T00:29:56.245Z,15.60
2022-10-24T00:32:23.011Z,15.70
2022-10-24T00:34:49.813Z,15.70
2022-10-24T00:37:16.712Z,15.60
2022-10-24T00:39:43.735Z,15.60
2022-10-24T00:42:12.408Z,15.60
2022-10-24T00:44:41.283Z,15.60
2022-10-24T00:47:23.293Z,15.60
2022-10-24T00:50:04.752Z,15.50
2022-10-24T00:52:36.715Z,15.50
2022-10-24T00:55:06.118Z,15.50
2022-10-24T00:57:54.902Z,15.50
2022-10-24T01:00:26.768Z,15.60
2022-10-24T01:02:53.740Z,15.50
2022-10-24T01:05:22.753Z,15.50
2022-10-24T01:07:52.373Z,15.50
2022-10-24T01:10:41.746Z,15.50
2022-10-24T01:13:17.373Z,15.60
2022-10-24T01:15:58.234Z,15.50
2022-10-24T01:18:32.589Z,15.50
2022-10-24T01:21:14.541Z,15.50
2022-10-24T01:24:06.874Z,15.60
2022-10-24T01:27:11.411Z,15.60
2022-10-24T01:29:59.851Z,15.60
2022-10-24T01:32:53.887Z,15.60
2022-10-24T01:35:35.823Z,15.60
2022-10-24T01:38:21.439Z,15.70
2022-10-24T01:40:54.670Z,15.70
2022-10-24T01:43:31.507Z,15.70
2022-10-24T01:46:08.008Z,15.80
2022-10-24T01:48:41.148Z,15.80
2022-10-24T01:51:09.303Z,15.70
2022-10-24T01:53:36.728Z,15.70
2022-10-24T01:56:03.703Z,15.70
2022-10-24T01:58:30.578Z,15.80
2022-10-24T02:01:03.261Z,15.80
2022-10-24T02:03:45.374Z,15.80
2022-10-24T02:06:20.866Z,15.80
2022-10-24T02:08:58.585Z,15.90
2022-10-24T02:11:25.788Z,15.90
2022-10-24T02:14:18.850Z,15.90
2022-10-24T02:16:46.499Z,15.90
2022-10-24T02:19:14.136Z,15.90
2022-10-24T02:21:46.572Z,15.90
2022-10-24T02:24:28.479Z,15.90
2022-10-24T02:27:01.327Z,15.90
2022-10-24T02:29:38.987Z,15.90
2022-10-24T02:32:11.915Z,15.90
2022-10-24T02:34:39.818Z,15.80
2022-10-24T02:37:09.385Z,15.80
2022-10-24T02:39:38.099Z,15.80
2022-10-24T02:42:06.971Z,15.70
2022-10-24T02:44:34.791Z,15.70
2022-10-24T02:47:04.341Z,15.70
2022-10-24T02:49:31.170Z,15.70
2022-10-24T02:51:59.374Z,15.70
2022-10-24T02:54:26.422Z,15.70
2022-10-24T02:56:57.957Z,15.70
2022-10-24T02:59:24.677Z,15.70
2022-10-24T03:01:51.567Z,15.60
2022-10-24T03:04:18.365Z,15.70
2022-10-24T03:06:45.235Z,15.60
2022-10-24T03:09:11.942Z,15.60
2022-10-24T03:11:39.112Z,15.50
2022-10-24T03:14:06.004Z,15.50
2022-10-24T03:16:32.862Z,15.50
2022-10-24T03:18:59.556Z,15.50
2022-10-24T03:21:26.451Z,15.50
2022-10-24T03:23:53.364Z,15.50
2022-10-24T03:26:20.324Z,15.50
2022-10-24T03:28:47.171Z,15.40
2022-10-24T03:31:14.255Z,15.50
2022-10-24T03:33:41.239Z,15.50
2022-10-24T03:36:08.515Z,15.50
2022-10-24T03:38:35.176Z,15.50
2022-10-24T03:41:02.142Z,15.50
2022-10-24T03:43:28.812Z,15.50
2022-10-24T03:45:55.503Z,15.50
2022-10-24T03:48:22.163Z,15.60
2022-10-24T03:50:49.000Z,15.60
2022-10-24T03:53:15.676Z,15.60
2022-10-24T03:55:42.376Z,15.60
2022-10-24T03:58:09.106Z,15.70
2022-10-24T04:00:40.212Z,15.70
2022-10-24T04:03:07.796Z,15.70
2022-10-24T04:05:34.518Z,15.70
2022-10-24T04:08:01.564Z,15.80
2022-10-24T04:10:28.943Z,15.80
2022-10-24T04:12:55.728Z,15.80
2022-10-24T04:15:22.377Z,15.80
2022-10-24T04:17:49.091Z,15.80
2022-10-24T04:20:20.035Z,15.80
2022-10-24T04:22:48.077Z,15.80
2022-10-24T04:25:16.303Z,15.80
2022-10-24T04:27:43.187Z,15.70
2022-10-24T04:30:16.386Z,15.80
2022-10-24T04:32:44.980Z,15.80
2022-10-24T04:35:12.462Z,15.80
2022-10-24T04:37:39.283Z,15.80
2022-10-24T04:40:06.727Z,15.80
2022-10-24T04:42:33.471Z,15.90
2022-10-24T04:45:00.224Z,15.90
2022-10-24T04:47:27.047Z,15.90
2022-10-24T04:49:53.751Z,15.90
2022-10-24T04:52:20.492Z,15.90
2022-10-24T04:54:47.185Z,15.90
2022-10-24T04:57:13.853Z,15.90
2022-10-24T04:59:40.486Z,15.90
2022-10-24T05:02:07.494Z,15.90
2022-10-24T05:04:34.384Z,15.90
2022-10-24T05:07:01.862Z,15.90
2022-10-24T05:09:28.721Z,15.90
2022-10-24T05:11:56.588Z,15.90
2022-10-24T05:14:24.165Z,15.90
2022-10-24T05:16:50.912Z,15.90
2022-10-24T05:19:18.153Z,15.90
2022-10-24T05:21:45.195Z,15.90
2022-10-24T05:24:11.998Z,15.90
2022-10-24T05:26:38.757Z,15.90
2022-10-24T05:33:58.952Z,15.90
2022-10-24T05:36:25.630Z,16.00
2022-10-24T05:38:52.470Z,16.00
2022-10-24T05:41:19.386Z,16.00
2022-10-24T05:43:46.007Z,16.00
2022-10-24T05:46:12.691Z,16.00
2022-10-24T05:48:39.374Z,16.00
2022-10-24T05:51:06.203Z,16.00
2022-10-24T05:53:32.903Z,16.00
2022-10-24T05:55:59.755Z,16.00
2022-10-24T05:58:27.477Z,16.00
2022-10-24T06:00:54.470Z,15.90
2022-10-24T06:03:21.874Z,16.00
2022-10-24T06:05:49.252Z,15.90
2022-10-24T06:08:16.242Z,15.90
2022-10-24T06:10:47.843Z,16.00
2022-10-24T06:13:15.225Z,15.90
2022-10-24T06:15:43.384Z,15.90
2022-10-24T06:18:10.465Z,15.90
2022-10-24T06:20:37.900Z,15.90
2022-10-24T06:23:04.590Z,15.90
2022-10-24T06:25:31.583Z,15.90
2022-10-24T06:27:58.493Z,15.90
2022-10-24T06:30:25.381Z,15.90
2022-10-24T06:32:52.299Z,15.90
2022-10-24T06:35:19.830Z,15.90
2022-10-24T06:37:48.274Z,16.00
2022-10-24T06:40:17.125Z,16.00
2022-10-24T06:42:43.998Z,16.00
2022-10-24T06:45:11.869Z,16.10
2022-10-24T06:47:38.728Z,16.10
2022-10-24T06:50:06.307Z,16.10
2022-10-24T06:52:33.097Z,16.10
2022-10-24T06:54:59.787Z,16.10
2022-10-24T06:57:26.524Z,16.10
2022-10-24T06:59:53.834Z,16.10
2022-10-24T07:02:20.878Z,16.10
2022-10-24T07:04:47.848Z,16.10
2022-10-24T07:07:20.534Z,16.10
2022-10-24T07:09:54.530Z,16.10
2022-10-24T07:12:24.924Z,16.10
2022-10-24T07:14:53.182Z,16.10
2022-10-24T07:17:20.715Z,16.10
2022-10-24T07:19:53.928Z,16.10
2022-10-24T07:22:20.889Z,16.10
2022-10-24T07:24:54.107Z,16.10
2022-10-24T07:27:21.886Z,16.10
2022-10-24T07:29:48.920Z,16.10
2022-10-24T07:32:15.770Z,16.10
2022-10-24T07:34:42.652Z,16.10
2022-10-24T07:37:09.519Z,16.10
2022-10-24T07:39:37.728Z,16.20
2022-10-24T07:42:04.714Z,16.20
2022-10-24T07:44:31.536Z,16.30
2022-10-24T07:46:58.271Z,16.30
2022-10-24T07:49:26.443Z,16.30
2022-10-24T07:51:54.607Z,16.30
2022-10-24T07:56:49.188Z,16.30
2022-10-24T07:59:37.006Z,16.30
2022-10-24T08:02:02.796Z,16.30
2022-10-24T08:04:30.525Z,16.40
2022-10-24T08:06:57.500Z,16.40
2022-10-24T08:09:24.749Z,16.40
2022-10-24T08:11:51.730Z,16.40
2022-10-24T08:14:18.462Z,16.40
2022-10-24T08:16:45.178Z,16.40
2022-10-24T08:19:12.694Z,16.40
2022-10-24T08:21:39.736Z,16.40
2022-10-24T08:24:06.832Z,16.40
2022-10-24T08:26:33.642Z,16.40
2022-10-24T08:29:02.164Z,16.40
2022-10-24T08:31:28.864Z,16.40
2022-10-24T08:33:56.071Z,16.30
2022-10-24T08:36:31.277Z,16.30
2022-10-24T08:38:58.503Z,16.30
2022-10-24T08:41:37.624Z,16.30
2022-10-24T08:44:28.212Z,16.30
2022-10-24T08:47:00.097Z,16.40
2022-10-24T08:49:33.176Z,16.40
2022-10-24T08:52:22.856Z,16.40
2022-10-24T08:54:52.362Z,16.40
2022-10-24T09:00:07.954Z,16.40
2022-10-24T09:02:39.616Z,16.40
2022-10-24T09:05:26.086Z,16.40
2022-10-24T09:08:04.331Z,16.40
2022-10-24T09:10:59.800Z,16.40
2022-10-24T09:13:27.866Z,16.50
2022-10-24T09:15:55.369Z,16.50
2022-10-24T09:18:34.659Z,16.50
2022-10-24T09:21:03.001Z,16.50
2022-10-24T09:23:32.465Z,16.50
2022-10-24T09:25:59.606Z,16.50
2022-10-24T09:28:26.687Z,16.60
2022-10-24T09:30:53.704Z,16.60
2022-10-24T09:33:30.704Z,16.60
2022-10-24T09:36:02.984Z,16.60
2022-10-24T09:38:33.958Z,16.60
2022-10-24T09:41:16.746Z,16.60
2022-10-24T09:43:56.221Z,16.60
2022-10-24T09:46:26.543Z,16.60
2022-10-24T09:48:59.247Z,16.60
2022-10-24T09:51:42.604Z,16.60
2022-10-24T09:54:23.543Z,16.60
2022-10-24T09:56:59.728Z,16.60
2022-10-24T09:59:44.495Z,16.50
2022-10-24T10:02:12.680Z,16.50
2022-10-24T10:04:43.297Z,16.40
2022-10-24T10:07:12.660Z,16.30
2022-10-24T10:09:56.697Z,16.30
2022-10-24T10:12:36.845Z,16.30
2022-10-24T10:15:27.025Z,16.30
2022-10-24T10:17:57.516Z,16.20
2022-10-24T10:20:42.488Z,16.20
2022-10-24T10:23:28.483Z,16.30
2022-10-24T10:26:23.415Z,16.30
2022-10-24T10:29:00.296Z,16.40
2022-10-24T10:31:44.851Z,16.50
2022-10-24T10:34:22.298Z,16.70
2022-10-24T10:36:49.291Z,16.80
2022-10-24T10:39:31.020Z,16.80
2022-10-24T10:42:09.325Z,16.70
2022-10-24T10:44:53.353Z,17.20
2022-10-24T10:47:27.586Z,18.00
2022-10-24T10:49:58.379Z,18.30
2022-10-24T10:52:45.990Z,18.20
2022-10-24T10:55:19.566Z,18.00
2022-10-24T10:57:58.641Z,17.80
2022-10-24T11:00:46.931Z,17.60
2022-10-24T11:03:34.568Z,17.50
2022-10-24T11:06:30.786Z,17.30
2022-10-24T11:09:22.157Z,17.20
2022-10-24T11:11:57.723Z,17.10
2022-10-24T11:14:45.129Z,17.10
2022-10-24T11:17:24.055Z,17.10
2022-10-24T11:19:58.653Z,17.10
2022-10-24T11:22:29.983Z,17.00
2022-10-24T11:25:37.217Z,17.00
2022-10-24T11:28:18.034Z,17.00
2022-10-24T11:30:52.030Z,17.10
2022-10-24T11:33:27.035Z,17.10
2022-10-24T11:36:02.570Z,17.00
2022-10-24T11:38:32.327Z,17.00
2022-10-24T11:41:16.618Z,16.90
2022-10-24T11:43:46.693Z,16.70
2022-10-24T11:46:22.069Z,16.40
2022-10-24T11:49:29.477Z,16.20
2022-10-24T11:52:11.067Z,16.10
2022-10-24T11:55:07.788Z,16.10
2022-10-24T11:57:35.823Z,16.10
2022-10-24T12:00:03.595Z,16.00
2022-10-24T12:03:18.755Z,16.00
2022-10-24T12:05:52.245Z,16.10
2022-10-24T12:08:30.861Z,16.10
2022-10-24T12:11:16.387Z,16.10
2022-10-24T12:13:58.393Z,16.10
2022-10-24T12:16:34.099Z,16.10
2022-10-24T12:19:14.159Z,16.20
2022-10-24T12:21:47.804Z,16.20
2022-10-24T12:24:33.265Z,16.30
2022-10-24T12:27:06.968Z,16.30
2022-10-24T12:29:36.187Z,16.40
2022-10-24T12:32:40.819Z,16.50
2022-10-24T12:35:35.399Z,16.60
2022-10-24T12:38:14.219Z,16.60
2022-10-24T12:40:55.448Z,16.60
2022-10-24T12:43:43.348Z,16.70
2022-10-24T12:46:19.040Z,16.60
2022-10-24T12:49:08.635Z,16.60
2022-10-24T12:51:40.366Z,16.60
2022-10-24T12:54:13.005Z,16.50
2022-10-24T12:57:02.530Z,16.50
2022-10-24T12:59:31.632Z,16.50
2022-10-24T13:02:13.427Z,16.40
2022-10-24T13:05:11.354Z,16.40
2022-10-24T13:07:53.730Z,16.40
2022-10-24T13:10:49.151Z,16.30
2022-10-24T13:13:21.540Z,16.20
2022-10-24T13:15:53.496Z,16.10
2022-10-24T13:18:41.960Z,16.10
2022-10-24T13:21:33.280Z,16.10
2022-10-24T13:24:22.507Z,16.00
2022-10-24T13:26:58.154Z,15.80
2022-10-24T13:29:27.769Z,15.70
2022-10-24T13:32:18.723Z,15.60
2022-10-24T13:34:50.584Z,15.60
2022-10-24T13:37:35.707Z,15.60
2022-10-24T13:40:11.163Z,15.60
2022-10-24T13:43:04.731Z,15.70
2022-10-24T13:45:52.197Z,15.70
2022-10-24T13:48:21.617Z,15.70
2022-10-24T13:51:12.844Z,15.70
2022-10-24T13:53:47.919Z,15.70
2022-10-24T13:56:15.111Z,15.70
2022-10-24T13:58:44.650Z,15.70
2022-10-24T14:01:25.137Z,15.80
2022-10-24T14:03:53.248Z,15.70
2022-10-24T14:06:33.756Z,15.70
2022-10-24T14:09:07.516Z,15.70
2022-10-24T14:11:39.266Z,15.70
2022-10-24T14:14:26.922Z,15.70
2022-10-24T14:17:28.729Z,15.60
2022-10-24T14:19:57.442Z,15.70
2022-10-24T14:22:28.507Z,15.70
2022-10-24T14:24:56.314Z,15.70
2022-10-24T14:27:23.515Z,15.70
2022-10-24T14:29:53.839Z,15.80
2022-10-24T14:32:20.874Z,15.80
2022-10-24T14:34:49.610Z,15.80
2022-10-24T14:37:31.075Z,15.80
2022-10-24T14:39:58.975Z,15.90
2022-10-24T14:42:27.120Z,15.90
2022-10-24T14:44:58.343Z,15.90
2022-10-24T14:47:36.302Z,16.00
2022-10-24T14:50:03.243Z,16.00
2022-10-24T14:52:36.370Z,16.10
2022-10-24T14:55:21.909Z,16.10
2022-10-24T14:57:51.206Z,16.10
2022-10-24T15:00:24.891Z,16.10
2022-10-24T15:02:54.261Z,16.20
2022-10-24T15:05:22.236Z,16.20
2022-10-24T15:08:16.833Z,16.20
2022-10-24T15:10:43.099Z,16.20
2022-10-24T15:13:21.387Z,16.20
2022-10-24T15:15:58.547Z,16.20
2022-10-24T15:18:41.125Z,16.20
2022-10-24T15:21:14.316Z,16.20
2022-10-24T15:23:53.708Z,16.20
2022-10-24T15:26:42.709Z,16.20
2022-10-24T15:29:12.151Z,16.20
2022-10-24T15:31:44.542Z,16.10
2022-10-24T15:34:23.646Z,16.10
2022-10-24T15:36:52.547Z,16.10
2022-10-24T15:39:27.223Z,16.10
2022-10-24T15:41:55.096Z,16.10
2022-10-24T15:44:30.078Z,16.00
2022-10-24T15:46:57.178Z,16.00
2022-10-24T15:49:24.223Z,16.00
2022-10-24T15:51:51.774Z,15.90
2022-10-24T15:54:20.280Z,15.90
2022-10-24T15:56:47.631Z,15.90
2022-10-24T15:59:14.853Z,15.90
2022-10-24T16:01:47.500Z,15.80
2022-10-24T16:04:15.153Z,15.80
2022-10-24T16:06:43.453Z,15.80
2022-10-24T16:09:20.084Z,15.70
2022-10-24T16:11:47.099Z,15.70
2022-10-24T16:14:19.380Z,15.70
2022-10-24T16:16:45.991Z,15.70
2022-10-24T16:19:13.194Z,15.70
2022-10-24T16:21:41.383Z,15.70
2022-10-24T16:24:09.491Z,15.60
2022-10-24T16:26:36.580Z,15.60
2022-10-24T16:29:03.732Z,15.60
2022-10-24T16:31:30.614Z,15.60
2022-10-24T16:33:58.451Z,15.50
2022-10-24T16:36:25.481Z,15.50
2022-10-24T16:38:52.881Z,15.50
2022-10-24T16:41:25.167Z,15.50
2022-10-24T16:43:56.331Z,15.50
2022-10-24T16:46:27.971Z,15.40
2022-10-24T16:48:55.351Z,15.40
2022-10-24T16:51:32.335Z,15.40
2022-10-24T16:54:00.986Z,15.40
2022-10-24T16:56:28.056Z,15.30
2022-10-24T16:58:54.821Z,15.30
2022-10-24T17:01:23.045Z,15.30
2022-10-24T17:03:49.846Z,15.20
2022-10-24T17:06:16.546Z,15.20
2022-10-24T17:08:43.568Z,15.20
2022-10-24T17:11:32.131Z,15.20
2022-10-24T17:13:58.251Z,15.10
2022-10-24T17:16:25.187Z,15.10
2022-10-24T17:19:05.527Z,15.10
2022-10-24T17:21:45.508Z,15.00
2022-10-24T17:24:16.130Z,15.00
2022-10-24T17:26:42.899Z,15.00
2022-10-24T17:29:26.604Z,14.90
2022-10-24T17:31:53.996Z,14.90
2022-10-24T17:34:21.131Z,14.80
2022-10-24T17:36:59.314Z,14.80
2022-10-24T17:39:31.225Z,14.80
2022-10-24T17:41:58.066Z,14.70
2022-10-24T17:44:25.302Z,14.70
2022-10-24T17:46:55.908Z,14.60
2022-10-24T17:49:25.311Z,14.60
2022-10-24T17:51:52.037Z,14.60
2022-10-24T17:54:19.156Z,14.60
2022-10-24T17:56:45.948Z,14.60
2022-10-24T17:59:12.833Z,14.60
2022-10-24T18:01:40.027Z,14.60
2022-10-24T18:04:07.203Z,14.60
2022-10-24T18:06:35.119Z,14.60
2022-10-24T18:09:04.074Z,14.60
2022-10-24T18:11:30.886Z,14.60
2022-10-24T18:13:57.532Z,14.60
2022-10-24T18:16:26.277Z,14.60
2022-10-24T18:18:56.354Z,14.50
2022-10-24T18:21:24.944Z,14.50
2022-10-24T18:23:53.300Z,14.50
2022-10-24T18:26:23.128Z,14.50
2022-10-24T18:28:52.198Z,14.50
2022-10-24T18:31:24.659Z,14.50
2022-10-24T18:33:52.101Z,14.50
2022-10-24T18:36:25.733Z,14.50
2022-10-24T18:38:57.312Z,14.50
2022-10-24T18:41:30.180Z,14.50
2022-10-24T18:43:59.670Z,14.50
2022-10-24T18:46:28.289Z,14.50
2022-10-24T18:48:55.312Z,14.40
2022-10-24T18:51:35.980Z,14.40
2022-10-24T18:54:16.775Z,14.40
2022-10-24T18:56:43.962Z,14.40
2022-10-24T18:59:19.734Z,14.40
2022-10-24T19:02:05.548Z,14.40
2022-10-24T19:04:38.146Z,14.40
2022-10-24T19:07:05.149Z,14.40
2022-10-24T19:09:32.020Z,14.30
2022-10-24T19:11:58.983Z,14.30
2022-10-24T19:14:25.951Z,14.30
2022-10-24T19:16:53.155Z,14.30
2022-10-24T19:19:26.286Z,14.30
2022-10-24T19:21:53.404Z,14.20
2022-10-24T19:24:20.485Z,14.20
2022-10-24T19:26:47.722Z,14.10
2022-10-24T19:29:14.473Z,14.20
2022-10-24T19:31:41.299Z,14.10
2022-10-24T19:34:10.309Z,14.10
2022-10-24T19:36:37.572Z,14.10
2022-10-24T19:39:04.709Z,14.10
2022-10-24T19:41:31.999Z,14.00
2022-10-24T19:43:59.022Z,14.00
2022-10-24T19:46:25.921Z,14.00
2022-10-24T19:48:53.119Z,13.90
2022-10-24T19:51:20.995Z,13.90
2022-10-24T19:53:49.527Z,13.90
2022-10-24T19:56:25.030Z,13.90
2022-10-24T19:58:53.760Z,13.90
2022-10-24T20:01:23.675Z,13.80
2022-10-24T20:03:51.338Z,13.80
2022-10-24T20:06:18.851Z,13.80
2022-10-24T20:08:46.717Z,13.80
2022-10-24T20:11:15.296Z,13.80
2022-10-24T20:13:43.726Z,13.80
2022-10-24T20:16:11.429Z,13.80
2022-10-24T20:21:08.365Z,13.70
2022-10-24T20:23:36.311Z,13.70
2022-10-24T20:26:10.056Z,13.70
2022-10-24T20:28:39.397Z,13.70
2022-10-24T20:31:07.205Z,13.70
2022-10-24T20:33:33.858Z,13.70
2022-10-24T20:36:01.256Z,13.70
2022-10-24T20:38:28.812Z,13.70
2022-10-24T20:41:01.220Z,13.70
2022-10-24T20:43:28.451Z,13.70
2022-10-24T20:45:55.556Z,13.70
2022-10-24T20:48:25.135Z,13.70
2022-10-24T20:50:51.773Z,13.70
2022-10-24T20:53:20.151Z,13.70
2022-10-24T20:55:46.789Z,13.70
2022-10-24T20:58:13.601Z,13.70
2022-10-24T21:03:11.899Z,13.70
2022-10-24T21:05:38.647Z,13.70
2022-10-24T21:08:05.551Z,13.70
2022-10-24T21:10:32.312Z,13.70
2022-10-24T21:12:59.031Z,13.70
2022-10-24T21:15:25.681Z,13.70
2022-10-24T21:17:52.331Z,13.70
2022-10-24T21:20:19.227Z,13.70
2022-10-24T21:22:45.972Z,13.60
2022-10-24T21:25:12.600Z,13.60
2022-10-24T21:27:39.230Z,13.60
2022-10-24T21:30:08.875Z,13.60
2022-10-24T21:32:38.883Z,13.60
2022-10-24T21:35:05.836Z,13.60
2022-10-24T21:37:32.791Z,13.60
2022-10-24T21:39:59.520Z,13.50
2022-10-24T21:42:26.195Z,13.50
2022-10-24T21:44:52.892Z,13.50
2022-10-24T21:47:19.531Z,13.50
2022-10-24T21:49:46.287Z,13.50
2022-10-24T21:52:12.896Z,13.50
2022-10-24T21:54:39.584Z,13.50
2022-10-24T21:57:06.303Z,13.40
2022-10-24T21:59:32.992Z,13.40
2022-10-24T22:01:59.723Z,13.40
2022-10-24T22:04:26.703Z,13.40
2022-10-24T22:06:53.345Z,13.40
2022-10-24T22:09:23.455Z,13.40
2022-10-24T22:11:50.333Z,13.30
2022-10-24T22:14:17.748Z,13.30
2022-10-24T22:16:47.245Z,13.30
2022-10-24T22:19:14.339Z,13.30
2022-10-24T22:21:46.495Z,13.20
2022-10-24T22:24:16.604Z,13.20
2022-10-24T22:26:44.661Z,13.20
2022-10-24T22:29:14.871Z,13.20
2022-10-24T22:31:42.463Z,13.20
2022-10-24T22:34:15.488Z,13.20
2022-10-24T22:36:54.371Z,13.20
2022-10-24T22:39:23.941Z,13.20
2022-10-24T22:41:51.647Z,13.20
2022-10-24T22:44:22.939Z,13.20
2022-10-24T22:47:07.684Z,13.20
2022-10-24T22:49:57.160Z,13.20
2022-10-24T22:52:24.129Z,13.20
2022-10-24T22:54:51.281Z,13.20
2022-10-24T22:57:18.472Z,13.20
2022-10-24T22:59:45.694Z,13.20
2022-10-24T23:02:29.037Z,13.20
2022-10-24T23:05:07.935Z,13.20
2022-10-24T23:07:37.971Z,13.20
2022-10-24T23:10:08.749Z,13.20
2022-10-24T23:12:37.507Z,13.20
2022-10-24T23:15:04.703Z,13.20
2022-10-24T23:17:32.774Z,13.20
2022-10-24T23:19:59.934Z,13.20
2022-10-24T23:22:33.127Z,13.20
2022-10-24T23:25:01.325Z,13.30
2022-10-24T23:27:35.514Z,13.30
2022-10-24T23:30:15.335Z,13.30
2022-10-24T23:32:42.503Z,13.30
2022-10-24T23:35:11.994Z,13.30
2022-10-24T23:37:47.408Z,13.40
2022-10-24T23:40:16.879Z,13.30
2022-10-24T23:42:48.041Z,13.40
2022-10-24T23:45:16.000Z,13.50
2022-10-24T23:48:09.102Z,13.50
2022-10-24T23:50:56.015Z,13.50
2022-10-24T23:53:48.688Z,13.50
2022-10-24T23:56:17.230Z,13.50
2022-10-24T23:58:44.361Z,13.50
